Time;durP1;ratioP1;P1;durP2;ratioP2;P2;SDS_P1;SDS_P2;PMS_P1;PMS_P2;Temp;Humidity;BMP_temperature;BMP_pressure;BME280_temperature;BME280_humidity;BME280_pressure;Samples;Min_cycle;Max_cycle;Signal;HPM_P1;HPM_P2
2023/05/16 00:00:37;;;;;;;18.10;10.90;;;;;;;12.70;81.44;101110.59;4980063;28;20500;-62
2023/05/16 00:03:04;;;;;;;14.73;9.73;;;;;;;12.66;81.76;101108.94;4982725;28;20088;-62
2023/05/16 00:05:29;;;;;;;13.27;8.45;;;;;;;12.64;81.92;101109.81;4984830;28;20057;-62
2023/05/16 00:07:55;;;;;;;13.80;7.90;;;;;;;12.56;82.46;101119.41;4982506;28;20125;-63
2023/05/16 00:10:20;;;;;;;12.43;7.20;;;;;;;12.52;83.45;101118.59;4982034;28;20060;-63
2023/05/16 00:12:47;;;;;;;14.63;8.10;;;;;;;12.46;83.72;101119.50;4983215;28;20032;-63
2023/05/16 00:15:13;;;;;;;9.55;7.20;;;;;;;12.41;84.55;101117.81;4982442;28;20061;-63
2023/05/16 00:17:39;;;;;;;12.93;7.18;;;;;;;12.35;84.94;101121.34;4982091;28;20156;-62
2023/05/16 00:20:10;;;;;;;8.80;6.45;;;;;;;12.31;85.83;101116.22;4980123;28;20049;-63
2023/05/16 00:22:36;;;;;;;12.15;6.85;;;;;;;12.23;86.80;101120.59;4987324;28;20037;-64
2023/05/16 00:25:02;;;;;;;12.00;8.07;;;;;;;12.08;88.60;101119.00;4975939;28;20136;-63
2023/05/16 00:27:28;;;;;;;18.60;8.80;;;;;;;11.98;89.80;101121.72;4983532;28;20034;-67
2023/05/16 00:29:54;;;;;;;15.20;9.27;;;;;;;11.88;91.62;101121.78;4984713;28;20022;-64
2023/05/16 00:32:20;;;;;;;17.80;9.82;;;;;;;11.85;92.75;101126.97;4982167;28;20085;-64
2023/05/16 00:34:45;;;;;;;17.70;10.77;;;;;;;11.77;93.40;101122.72;4982448;28;20540;-63
2023/05/16 00:37:10;;;;;;;17.27;11.38;;;;;;;11.68;94.55;101126.25;4982208;28;20108;-63
2023/05/16 00:39:36;;;;;;;19.10;11.82;;;;;;;11.61;95.84;101126.28;4980307;28;20085;-64
2023/05/16 00:42:01;;;;;;;19.83;11.95;;;;;;;11.58;95.88;101124.59;4979476;28;20042;-64
2023/05/16 00:44:27;;;;;;;20.42;11.38;;;;;;;11.53;97.31;101125.50;4985147;28;20138;-64
2023/05/16 00:46:53;;;;;;;22.58;11.95;;;;;;;11.48;97.65;101122.94;4983300;28;20618;-64
2023/05/16 00:49:18;;;;;;;18.25;11.82;;;;;;;11.46;98.57;101118.63;4981553;28;20042;-64
2023/05/16 00:51:44;;;;;;;19.73;11.93;;;;;;;11.43;99.17;101124.69;4985430;28;20841;-64
2023/05/16 00:54:10;;;;;;;17.83;11.77;;;;;;;11.37;99.38;101116.91;4982162;28;20391;-65
2023/05/16 00:56:36;;;;;;;20.83;11.90;;;;;;;11.38;100.00;101115.19;4977114;28;20038;-64
2023/05/16 00:59:02;;;;;;;16.40;11.85;;;;;;;11.35;100.00;101116.09;4986731;28;20062;-64
2023/05/16 01:01:28;;;;;;;19.67;12.60;;;;;;;11.35;100.00;101122.13;4980330;28;20038;-64
2023/05/16 01:03:54;;;;;;;18.50;12.57;;;;;;;11.31;100.00;101117.81;4981317;28;20045;-64
2023/05/16 01:06:20;;;;;;;16.13;11.38;;;;;;;11.26;100.00;101118.72;4984529;28;20484;-64
2023/05/16 01:08:45;;;;;;;20.83;12.48;;;;;;;11.28;100.00;101122.16;4980579;28;20274;-64
2023/05/16 01:11:34;;;;;;;18.75;12.27;;;;;;;11.26;100.00;101124.75;4976869;28;20042;-64
2023/05/16 01:14:06;;;;;;;18.83;12.32;;;;;;;11.25;100.00;101117.84;4989217;28;20030;-64
2023/05/16 01:16:38;;;;;;;18.92;11.57;;;;;;;11.27;100.00;101113.56;4975186;28;20041;-64
2023/05/16 01:19:25;;;;;;;19.92;12.20;;;;;;;11.23;100.00;101127.38;4976321;28;20194;-63
2023/05/16 01:22:16;;;;;;;16.35;11.50;;;;;;;11.19;100.00;101120.47;4981046;28;20121;-63
2023/05/16 01:25:09;;;;;;;21.38;12.25;;;;;;;11.17;100.00;101129.97;4980186;28;20026;-64
2023/05/16 01:27:37;;;;;;;21.90;13.85;;;;;;;11.22;100.00;101120.47;4979273;28;20023;-64
2023/05/16 01:30:14;;;;;;;18.25;12.50;;;;;;;11.20;100.00;101124.78;4980918;28;20053;-63
2023/05/16 01:32:39;;;;;;;19.00;13.30;;;;;;;11.18;100.00;101125.66;4986420;28;20042;-64
2023/05/16 01:35:07;;;;;;;19.88;13.77;;;;;;;11.16;100.00;101120.50;4985440;28;20071;-64
2023/05/16 01:38:02;;;;;;;19.65;13.57;;;;;;;11.16;100.00;101128.25;4982378;28;20046;-64
2023/05/16 01:40:30;;;;;;;19.98;12.60;;;;;;;11.15;100.00;101128.28;4978288;28;20030;-64
2023/05/16 01:42:58;;;;;;;19.77;12.32;;;;;;;11.13;100.00;101132.56;4981000;28;20038;-64
2023/05/16 01:45:32;;;;;;;17.55;12.25;;;;;;;11.11;100.00;101145.53;4982707;28;20034;-63
2023/05/16 01:48:06;;;;;;;19.90;12.80;;;;;;;11.11;100.00;101136.91;4983663;28;20054;-63
2023/05/16 01:50:35;;;;;;;16.65;11.93;;;;;;;11.04;100.00;101140.41;4983840;28;20046;-63
2023/05/16 01:53:17;;;;;;;16.48;11.57;;;;;;;11.02;100.00;101142.13;4980731;28;20884;-63
2023/05/16 01:55:51;;;;;;;17.00;12.25;;;;;;;11.05;100.00;101144.69;4978447;28;20424;-64
2023/05/16 01:58:20;;;;;;;21.03;13.13;;;;;;;11.02;100.00;101149.88;4982263;28;20034;-64
2023/05/16 02:00:45;;;;;;;21.65;13.20;;;;;;;10.99;100.00;101144.72;4986354;28;20054;-64
2023/05/16 02:03:11;;;;;;;19.48;13.32;;;;;;;10.97;100.00;101152.50;4984986;28;20034;-64
2023/05/16 02:05:36;;;;;;;20.05;13.60;;;;;;;10.97;100.00;101155.09;4982017;28;20096;-64
2023/05/16 02:08:03;;;;;;;20.05;11.93;;;;;;;10.99;100.00;101155.06;4983005;28;20053;-64
2023/05/16 02:10:28;;;;;;;18.25;11.20;;;;;;;10.95;100.00;101158.56;4982798;28;20066;-64
2023/05/16 02:12:54;;;;;;;19.98;12.45;;;;;;;10.91;100.00;101154.25;4987445;28;20121;-64
2023/05/16 02:15:20;;;;;;;21.08;13.88;;;;;;;10.84;100.00;101168.03;4988045;28;20034;-65
2023/05/16 02:17:46;;;;;;;19.98;14.40;;;;;;;10.79;100.00;101161.19;4983113;28;20034;-64
2023/05/16 02:20:12;;;;;;;21.90;14.95;;;;;;;10.74;100.00;101169.81;5013973;28;20042;-65
2023/05/16 02:22:42;;;;;;;24.83;16.10;;;;;;;10.69;100.00;101171.53;4987745;28;20038;-64
2023/05/16 02:25:09;;;;;;;28.30;17.55;;;;;;;10.66;100.00;101171.53;4982482;28;20037;-65
2023/05/16 02:27:35;;;;;;;28.00;17.92;;;;;;;10.59;100.00;101182.78;4984249;28;20053;-68
2023/05/16 02:30:00;;;;;;;32.85;19.95;;;;;;;10.55;100.00;101192.25;4988168;28;20030;-65
2023/05/16 02:32:26;;;;;;;26.77;17.90;;;;;;;10.50;100.00;101188.81;4984132;28;20574;-66
2023/05/16 02:34:51;;;;;;;28.10;18.15;;;;;;;10.47;100.00;101196.59;4986721;28;20543;-65
2023/05/16 02:37:17;;;;;;;28.83;20.23;;;;;;;10.45;100.00;101189.66;4983169;28;20467;-65
2023/05/16 02:39:42;;;;;;;27.60;17.75;;;;;;;10.43;100.00;101196.56;4978737;28;20101;-65
2023/05/16 02:42:07;;;;;;;28.00;18.27;;;;;;;10.41;100.00;101193.13;4982345;28;20424;-64
2023/05/16 02:44:33;;;;;;;27.98;18.30;;;;;;;10.37;100.00;101207.78;4981902;28;20747;-65
2023/05/16 02:46:58;;;;;;;31.77;18.77;;;;;;;10.36;100.00;101208.63;4987812;28;21294;-66
2023/05/16 02:49:24;;;;;;;28.88;16.27;;;;;;;10.33;100.00;101213.78;4980796;28;20057;-65
2023/05/16 02:51:50;;;;;;;22.77;14.27;;;;;;;10.23;100.00;101220.72;4987912;28;20042;-65
2023/05/16 02:54:16;;;;;;;26.42;15.80;;;;;;;10.22;100.00;101211.22;4983798;28;20030;-65
2023/05/16 02:56:41;;;;;;;19.23;13.35;;;;;;;10.19;100.00;101221.56;4975957;28;20088;-65
2023/05/16 02:59:07;;;;;;;18.88;11.45;;;;;;;10.11;100.00;101220.69;4986328;28;20088;-65
2023/05/16 03:01:33;;;;;;;17.70;10.18;;;;;;;10.05;100.00;101228.44;4982475;28;20162;-65
2023/05/16 03:03:58;;;;;;;16.05;8.93;;;;;;;9.93;100.00;101232.72;4984389;28;20134;-64
2023/05/16 03:06:24;;;;;;;17.80;8.10;;;;;;;9.87;100.00;101235.28;4978397;28;20031;-67
2023/05/16 03:08:49;;;;;;;12.98;6.90;;;;;;;9.80;100.00;101246.44;4979427;28;20632;-65
2023/05/16 03:11:18;;;;;;;15.25;6.45;;;;;;;9.72;100.00;101246.44;4980097;28;20317;-65
2023/05/16 03:13:43;;;;;;;12.27;6.40;;;;;;;9.66;100.00;101243.84;4984539;28;20034;-67
2023/05/16 03:16:08;;;;;;;14.63;6.50;;;;;;;9.63;100.00;101246.41;4979530;28;20452;-65
2023/05/16 03:18:34;;;;;;;15.63;6.28;;;;;;;9.57;100.00;101248.94;4984421;28;20030;-66
2023/05/16 03:21:00;;;;;;;13.40;7.20;;;;;;;9.55;100.00;101248.09;4982260;28;20041;-64
2023/05/16 03:23:26;;;;;;;19.67;6.72;;;;;;;9.53;100.00;101248.06;4984203;28;20042;-67
2023/05/16 03:25:51;;;;;;;17.63;7.28;;;;;;;9.46;100.00;101256.66;4976657;28;20167;-63
2023/05/16 03:28:17;;;;;;;13.98;6.18;;;;;;;9.45;100.00;101252.34;4981878;28;20583;-64
2023/05/16 03:30:42;;;;;;;15.63;5.90;;;;;;;9.45;100.00;101259.22;4986778;28;20740;-64
2023/05/16 03:33:08;;;;;;;14.25;5.20;;;;;;;9.40;100.00;101268.66;4990187;28;20026;-65
2023/05/16 03:35:35;;;;;;;17.85;5.55;;;;;;;9.39;100.00;101264.34;4983852;28;20037;-64
2023/05/16 03:38:01;;;;;;;11.35;5.55;;;;;;;9.38;100.00;101265.19;4980484;28;20046;-64
2023/05/16 03:40:27;;;;;;;23.25;7.35;;;;;;;9.39;100.00;101272.97;4984985;28;20065;-63
2023/05/16 03:42:52;;;;;;;22.25;7.53;;;;;;;9.38;100.00;101276.38;4986327;28;20184;-63
2023/05/16 03:45:18;;;;;;;18.60;7.10;;;;;;;9.37;100.00;101277.25;4979379;28;20029;-64
2023/05/16 03:47:43;;;;;;;17.40;7.18;;;;;;;9.34;100.00;101282.41;4984523;28;20049;-64
2023/05/16 03:50:09;;;;;;;19.80;7.80;;;;;;;9.36;100.00;101291.00;4988714;28;20116;-65
2023/05/16 03:52:35;;;;;;;15.63;6.93;;;;;;;9.35;100.00;101290.97;4985699;28;20380;-65
2023/05/16 03:55:02;;;;;;;18.88;8.25;;;;;;;9.30;100.00;101290.97;4981207;28;20047;-64
2023/05/16 03:57:30;;;;;;;24.77;7.90;;;;;;;9.30;100.00;101283.22;4985195;28;20045;-64
2023/05/16 03:59:56;;;;;;;21.05;7.53;;;;;;;9.30;100.00;101290.97;4990338;28;20038;-64
2023/05/16 04:02:21;;;;;;;20.75;7.57;;;;;;;9.32;100.00;101296.13;4983394;28;20389;-64
2023/05/16 04:04:46;;;;;;;19.95;7.25;;;;;;;9.33;100.00;101303.03;5007101;28;20034;-64
2023/05/16 04:07:12;;;;;;;30.30;7.80;;;;;;;9.32;100.00;101306.44;4980893;28;20041;-64
2023/05/16 04:09:38;;;;;;;26.60;7.40;;;;;;;9.28;100.00;101303.00;4980587;28;20157;-64
2023/05/16 04:12:03;;;;;;;31.10;7.93;;;;;;;9.28;100.00;101307.31;4983947;28;20028;-63
2023/05/16 04:14:29;;;;;;;24.75;6.72;;;;;;;9.23;99.32;101315.00;4984092;28;20614;-65
2023/05/16 04:16:54;;;;;;;24.60;8.60;;;;;;;9.22;99.47;101310.72;4980742;28;20057;-65
2023/05/16 04:19:19;;;;;;;19.45;6.25;;;;;;;9.18;98.49;101314.13;4980171;28;20137;-64
2023/05/16 04:21:45;;;;;;;34.08;7.70;;;;;;;9.16;97.46;101321.00;4984835;28;20034;-64
2023/05/16 04:24:10;;;;;;;18.85;6.05;;;;;;;9.13;98.55;101323.56;4984924;28;20488;-65
2023/05/16 04:26:36;;;;;;;23.23;7.13;;;;;;;9.10;98.90;101320.94;4974789;28;20050;-63
2023/05/16 04:29:02;;;;;;;22.90;5.97;;;;;;;9.09;97.41;101321.78;4985044;28;20039;-68
2023/05/16 04:31:27;;;;;;;19.85;6.43;;;;;;;9.07;97.86;101328.66;4981481;28;20038;-64
2023/05/16 04:33:53;;;;;;;18.98;7.10;;;;;;;9.04;98.12;101324.34;4981999;28;20062;-66
2023/05/16 04:36:20;;;;;;;21.95;7.07;;;;;;;9.03;97.92;101332.06;4981733;28;20041;-64
2023/05/16 04:38:48;;;;;;;19.98;6.30;;;;;;;9.01;97.20;101339.81;4981240;28;20043;-64
2023/05/16 04:41:13;;;;;;;22.35;6.10;;;;;;;9.04;95.79;101334.66;4980682;28;20030;-65
2023/05/16 04:43:39;;;;;;;19.67;5.15;;;;;;;9.05;95.25;101343.28;4983456;28;20057;-63
2023/05/16 04:46:06;;;;;;;15.20;5.57;;;;;;;9.12;92.94;101340.72;4982935;28;20419;-64
2023/05/16 04:48:32;;;;;;;15.93;4.85;;;;;;;9.12;92.93;101350.19;4984713;28;20038;-65
2023/05/16 04:50:58;;;;;;;21.15;5.80;;;;;;;9.12;94.04;101347.59;4986826;28;20108;-65
2023/05/16 04:53:23;;;;;;;21.17;6.30;;;;;;;9.09;94.73;101351.03;4980534;28;20034;-65
2023/05/16 04:55:48;;;;;;;28.00;8.07;;;;;;;9.08;95.67;101362.19;4981252;28;20560;-64
2023/05/16 04:58:14;;;;;;;23.58;7.85;;;;;;;9.07;94.45;101357.91;4979841;28;20839;-64
2023/05/16 05:00:40;;;;;;;19.23;8.70;;;;;;;9.11;95.58;101367.38;4978803;28;20657;-65
2023/05/16 05:03:06;;;;;;;16.55;8.30;;;;;;;9.12;94.91;101370.81;4984354;28;20049;-65
2023/05/16 05:05:31;;;;;;;21.00;7.05;;;;;;;9.13;94.76;101375.13;4979470;28;20133;-64
2023/05/16 05:07:57;;;;;;;23.40;5.97;;;;;;;9.13;93.81;101380.28;4979303;28;20058;-66
2023/05/16 05:10:23;;;;;;;21.98;5.75;;;;;;;9.16;93.65;101377.72;4980366;28;20042;-66
2023/05/16 05:12:48;;;;;;;21.98;6.22;;;;;;;9.20;93.61;101381.19;4979637;28;20039;-66
2023/05/16 05:15:13;;;;;;;25.30;6.40;;;;;;;9.21;93.75;101388.94;4980355;28;20034;-65
2023/05/16 05:17:39;;;;;;;24.92;6.38;;;;;;;9.26;94.22;101394.16;4977955;28;20899;-65
2023/05/16 05:20:09;;;;;;;17.15;6.07;;;;;;;9.29;93.49;101397.56;4979099;28;20081;-66
2023/05/16 05:22:34;;;;;;;26.45;6.43;;;;;;;9.32;93.09;101392.44;4985742;28;20152;-67
2023/05/16 05:25:00;;;;;;;18.65;5.38;;;;;;;9.34;93.43;101397.63;4982627;28;20562;-64
2023/05/16 05:27:26;;;;;;;15.07;5.28;;;;;;;9.33;92.63;101407.06;4982677;28;20076;-64
2023/05/16 05:29:52;;;;;;;18.27;5.90;;;;;;;9.36;92.52;101413.97;4980372;28;20036;-65
2023/05/16 05:32:17;;;;;;;26.58;6.55;;;;;;;9.35;91.33;101423.41;4985335;28;20046;-66
2023/05/16 05:34:42;;;;;;;20.75;5.68;;;;;;;9.35;92.02;101415.69;4980499;28;20057;-65
2023/05/16 05:37:08;;;;;;;23.60;6.22;;;;;;;9.30;90.96;101419.09;4983622;28;20042;-64
2023/05/16 05:39:33;;;;;;;18.95;4.80;;;;;;;9.31;91.51;101424.28;4980299;28;20034;-65
2023/05/16 05:42:01;;;;;;;21.05;5.68;;;;;;;9.31;90.62;101426.84;4985401;28;20041;-64
2023/05/16 05:44:26;;;;;;;16.95;5.05;;;;;;;9.36;89.94;101429.44;4981427;28;20188;-65
2023/05/16 05:46:52;;;;;;;21.42;5.10;;;;;;;9.37;88.78;101432.06;4981389;28;20049;-65
2023/05/16 05:49:17;;;;;;;15.52;4.07;;;;;;;9.48;89.18;101434.69;4979968;28;20039;-65
2023/05/16 05:51:43;;;;;;;18.20;5.05;;;;;;;9.45;89.36;101434.69;4984459;28;20045;-65
2023/05/16 05:54:09;;;;;;;17.02;3.78;;;;;;;9.34;88.58;101434.63;4989766;28;20045;-64
2023/05/16 05:56:34;;;;;;;24.95;4.85;;;;;;;9.28;88.90;101444.00;4984150;28;20039;-65
2023/05/16 05:59:00;;;;;;;19.13;6.05;;;;;;;9.24;88.09;101445.69;4986221;28;20522;-65
2023/05/16 06:01:26;;;;;;;15.07;4.28;;;;;;;9.23;88.34;101445.72;4984144;28;20053;-65
2023/05/16 06:03:51;;;;;;;20.33;4.68;;;;;;;9.27;86.82;101452.59;4983789;28;20483;-65
2023/05/16 06:06:17;;;;;;;20.05;5.05;;;;;;;9.36;89.39;101463.00;4984623;28;20045;-64
2023/05/16 06:08:42;;;;;;;14.25;3.50;;;;;;;9.34;88.43;101465.56;4981874;28;20042;-64
2023/05/16 06:11:08;;;;;;;17.33;3.90;;;;;;;9.44;87.63;101458.75;4985942;28;20045;-64
2023/05/16 06:13:33;;;;;;;17.52;4.03;;;;;;;9.63;88.38;101465.81;4978106;28;20030;-64
2023/05/16 06:15:59;;;;;;;18.92;3.97;;;;;;;9.77;87.33;101455.56;4982581;28;20038;-66
2023/05/16 06:18:24;;;;;;;11.05;3.80;;;;;;;9.88;85.01;101467.66;4982770;28;20049;-65
2023/05/16 06:20:51;;;;;;;20.77;5.28;;;;;;;9.96;83.61;101449.66;4983957;28;20415;-66
2023/05/16 06:23:17;;;;;;;19.33;3.95;;;;;;;10.05;81.25;101445.41;4980407;28;20046;-66
2023/05/16 06:25:42;;;;;;;18.45;3.63;;;;;;;10.09;81.70;101464.31;4981893;28;20043;-66
2023/05/16 06:28:07;;;;;;;17.83;3.33;;;;;;;10.08;81.77;101479.00;4982014;28;20112;-66
2023/05/16 06:30:33;;;;;;;12.55;3.50;;;;;;;10.16;82.34;101468.69;4987770;28;20474;-65
2023/05/16 06:32:59;;;;;;;11.27;2.95;;;;;;;10.15;80.71;101454.03;4982441;28;20037;-65
2023/05/16 06:35:24;;;;;;;15.80;2.97;;;;;;;10.13;79.36;101454.03;4987657;28;20050;-66
2023/05/16 06:37:50;;;;;;;15.48;3.72;;;;;;;10.30;80.60;101468.75;4983538;28;20035;-66
2023/05/16 06:40:15;;;;;;;18.83;4.68;;;;;;;10.35;79.20;101456.72;4984375;28;20088;-67
2023/05/16 06:42:41;;;;;;;11.73;2.45;;;;;;;10.17;76.32;101434.25;4982123;28;20033;-66
2023/05/16 06:45:07;;;;;;;18.38;3.90;;;;;;;10.18;79.18;101467.81;4978532;28;20113;-65
2023/05/16 06:47:32;;;;;;;16.13;2.53;;;;;;;10.19;79.17;101474.72;4982184;28;20122;-66
2023/05/16 06:49:58;;;;;;;17.95;2.28;;;;;;;10.17;77.31;101452.34;4984093;28;20072;-67
2023/05/16 06:52:24;;;;;;;17.50;2.70;;;;;;;10.11;77.24;101468.66;4985608;28;20412;-65
2023/05/16 06:54:49;;;;;;;13.73;2.78;;;;;;;9.99;76.95;101450.53;4978212;28;20192;-67
2023/05/16 06:57:15;;;;;;;11.60;2.72;;;;;;;9.97;76.32;101447.06;4977005;28;20164;-67
2023/05/16 06:59:41;;;;;;;13.43;2.95;;;;;;;10.07;76.66;101458.31;4981671;28;20582;-67
2023/05/16 07:02:06;;;;;;;10.15;3.40;;;;;;;10.25;75.56;101458.38;4984176;28;20026;-66
2023/05/16 07:04:33;;;;;;;16.45;2.60;;;;;;;10.47;75.94;101465.38;4979999;28;20089;-65
2023/05/16 07:06:58;;;;;;;12.18;2.70;;;;;;;10.65;73.80;101436.13;4985173;28;20679;-66
2023/05/16 07:09:24;;;;;;;15.77;3.08;;;;;;;10.66;74.36;101459.38;4980373;28;20064;-67
2023/05/16 07:11:49;;;;;;;14.25;3.15;;;;;;;10.72;73.18;101436.13;4981331;28;20042;-66
2023/05/16 07:14:14;;;;;;;14.43;2.20;;;;;;;10.82;72.14;101431.81;4997384;28;20459;-67
2023/05/16 07:16:40;;;;;;;19.77;2.58;;;;;;;10.78;74.73;101468.88;4978423;28;20041;-66
2023/05/16 07:19:05;;;;;;;16.00;3.20;;;;;;;10.65;71.31;101413.69;4979982;28;20034;-67
2023/05/16 07:21:31;;;;;;;12.93;2.85;;;;;;;10.72;69.65;101402.50;4983702;28;20027;-67
2023/05/16 07:23:56;;;;;;;12.25;2.97;;;;;;;10.96;70.95;101419.75;4996229;28;20073;-65
2023/05/16 07:26:22;;;;;;;19.77;3.97;;;;;;;11.13;69.84;101420.63;4974334;28;20065;-66
2023/05/16 07:28:51;;;;;;;12.00;2.40;;;;;;;10.98;68.26;101381.81;4979804;28;20070;-67
2023/05/16 07:31:17;;;;;;;9.85;2.60;;;;;;;11.06;68.78;101408.56;4981777;28;20030;-65
2023/05/16 07:33:44;;;;;;;10.20;2.03;;;;;;;11.13;69.41;101437.88;4995363;28;20102;-65
2023/05/16 07:36:10;;;;;;;11.15;2.85;;;;;;;11.20;69.98;101429.25;4989326;28;20086;-65
2023/05/16 07:38:35;;;;;;;13.25;2.55;;;;;;;11.18;69.59;101426.69;4982426;28;20061;-65
2023/05/16 07:41:01;;;;;;;9.73;2.40;;;;;;;11.20;68.21;101408.56;4979973;28;20065;-65
2023/05/16 07:43:26;;;;;;;13.82;2.30;;;;;;;11.15;68.39;101413.75;4983713;28;20065;-65
2023/05/16 07:45:52;;;;;;;10.20;2.50;;;;;;;11.10;67.00;101393.91;4982696;28;20058;-64
2023/05/16 07:48:17;;;;;;;9.48;2.55;;;;;;;11.12;68.42;101418.06;4983715;28;20100;-63
2023/05/16 07:50:43;;;;;;;9.70;1.60;;;;;;;11.16;68.28;101410.28;4980449;28;20124;-63
2023/05/16 07:53:08;;;;;;;8.05;2.10;;;;;;;11.27;67.50;101395.63;4979328;28;20038;-64
2023/05/16 07:55:34;;;;;;;11.10;2.03;;;;;;;11.48;66.40;101373.19;4976968;28;20041;-64
2023/05/16 07:57:59;;;;;;;10.07;2.03;;;;;;;11.51;65.24;101374.03;4979160;28;20117;-63
2023/05/16 08:00:25;;;;;;;9.05;1.70;;;;;;;11.55;65.68;101365.38;4975062;28;20081;-63
2023/05/16 08:02:51;;;;;;;8.88;1.45;;;;;;;11.68;63.36;101338.59;4978828;28;20129;-68
2023/05/16 08:05:19;;;;;;;11.40;2.05;;;;;;;11.90;65.52;101383.38;4980856;28;20088;-67
2023/05/16 08:07:45;;;;;;;7.10;1.67;;;;;;;12.18;64.98;101372.03;5013134;28;20366;-67
2023/05/16 08:10:10;;;;;;;8.43;1.70;;;;;;;12.27;63.24;101335.69;4982554;28;20049;-67
2023/05/16 08:12:36;;;;;;;11.32;2.05;;;;;;;12.18;61.99;101322.78;4976799;28;20053;-67
2023/05/16 08:15:03;;;;;;;8.30;2.15;;;;;;;12.22;61.26;101311.56;4982241;28;20034;-66
2023/05/16 08:17:28;;;;;;;11.07;1.90;;;;;;;12.33;61.32;101317.50;4983039;28;20107;-67
2023/05/16 08:19:53;;;;;;;8.05;1.88;;;;;;;12.36;60.07;101307.13;4980341;28;20347;-67
2023/05/16 08:22:19;;;;;;;8.25;1.75;;;;;;;12.28;60.80;101308.91;4980535;28;20101;-66
2023/05/16 08:24:44;;;;;;;7.38;1.80;;;;;;;12.15;59.36;101299.50;4984531;28;20050;-68
2023/05/16 08:27:10;;;;;;;7.15;1.70;;;;;;;12.22;59.97;101308.97;5007746;28;20046;-66
2023/05/16 08:29:36;;;;;;;7.88;1.55;;;;;;;12.26;60.52;101312.38;4984373;28;20041;-67
2023/05/16 08:32:01;;;;;;;5.40;1.90;;;;;;;12.15;60.13;101321.94;4985210;28;20113;-67
2023/05/16 08:34:30;;;;;;;10.70;3.25;;;;;;;12.05;61.10;101343.63;4980159;28;20043;-66
2023/05/16 08:36:56;;;;;;;5.78;1.83;;;;;;;12.32;63.12;101387.50;4997212;28;20048;-67
2023/05/16 08:39:21;;;;;;;7.13;2.00;;;;;;;12.51;59.87;101313.94;4982150;28;20046;-68
2023/05/16 08:41:46;;;;;;;9.32;2.05;;;;;;;12.93;60.88;101323.09;4980945;28;20046;-67
2023/05/16 08:44:19;;;;;;;8.63;2.08;;;;;;;13.24;59.75;101308.97;4977254;28;20995;-66
2023/05/16 08:46:52;;;;;;;6.03;1.48;;;;;;;13.08;56.96;101262.44;4984994;28;20048;-67
2023/05/16 08:49:18;;;;;;;6.38;1.33;;;;;;;13.19;55.94;101242.41;4981799;28;20049;-69
2023/05/16 08:51:45;;;;;;;9.82;1.67;;;;;;;13.62;55.31;101258.31;4984087;28;20034;-67
2023/05/16 08:54:13;;;;;;;9.50;1.92;;;;;;;13.37;55.59;101244.78;4979428;28;20492;-68
2023/05/16 08:56:40;;;;;;;8.00;1.80;;;;;;;13.10;54.35;101258.06;4980990;28;20122;-69
2023/05/16 08:59:06;;;;;;;7.93;1.85;;;;;;;13.00;55.65;101263.34;4982874;28;20030;-66
2023/05/16 09:01:32;;;;;;;7.55;1.95;;;;;;;13.08;54.93;101255.50;4983013;28;22011;-67
2023/05/16 09:03:59;;;;;;;7.80;2.13;;;;;;;13.35;55.54;101265.59;4981796;28;20042;-67
2023/05/16 09:06:25;;;;;;;13.30;2.40;;;;;;;13.42;55.89;101264.63;4988541;28;20038;-67
2023/05/16 09:08:51;;;;;;;11.07;2.40;;;;;;;13.32;55.16;101255.25;4982768;28;20631;-66
2023/05/16 09:11:17;;;;;;;7.95;2.47;;;;;;;13.37;56.90;101292.38;4978295;28;20049;-67
2023/05/16 09:13:43;;;;;;;6.55;2.53;;;;;;;13.38;58.31;101319.22;4982276;28;20054;-67
2023/05/16 09:16:16;;;;;;;13.85;3.40;;;;;;;13.19;57.56;101312.47;4978508;28;20109;-66
2023/05/16 09:18:43;;;;;;;9.55;3.08;;;;;;;13.03;57.73;101319.56;4969525;28;20064;-67
2023/05/16 09:21:10;;;;;;;9.95;3.28;;;;;;;13.21;57.01;101310.72;4981284;28;20034;-66
2023/05/16 09:23:36;;;;;;;9.63;3.00;;;;;;;13.36;57.26;101311.44;4980246;28;20113;-67
2023/05/16 09:26:03;;;;;;;8.73;2.60;;;;;;;13.60;56.67;101310.28;4981060;28;20034;-67
2023/05/16 09:28:29;;;;;;;7.82;2.65;;;;;;;13.62;55.37;101271.31;4976549;28;20034;-67
2023/05/16 09:30:57;;;;;;;9.07;2.70;;;;;;;13.46;55.33;101268.91;4980173;28;20053;-66
2023/05/16 09:33:25;;;;;;;14.68;2.70;;;;;;;13.65;56.23;101289.47;4977935;28;20045;-66
2023/05/16 09:35:59;;;;;;;8.82;2.75;;;;;;;13.90;54.88;101257.06;4980680;28;20042;-66
2023/05/16 09:38:27;;;;;;;8.23;2.03;;;;;;;14.37;52.85;101223.38;4982319;28;20030;-66
2023/05/16 09:40:53;;;;;;;7.10;1.65;;;;;;;14.21;50.33;101177.75;4981593;28;20030;-67
2023/05/16 09:43:25;;;;;;;7.88;1.95;;;;;;;14.26;51.20;101199.31;4980525;28;20717;-67
2023/05/16 09:45:51;;;;;;;7.63;2.00;;;;;;;14.48;50.68;101212.88;4985467;28;20046;-68
2023/05/16 09:48:17;;;;;;;8.52;2.13;;;;;;;13.94;50.62;101185.97;4981922;28;20092;-68
2023/05/16 09:50:51;;;;;;;5.93;1.75;;;;;;;14.30;50.99;101223.53;4977947;28;20038;-67
2023/05/16 09:53:17;;;;;;;8.48;1.52;;;;;;;14.47;49.75;101211.13;4977525;28;20672;-69
2023/05/16 09:55:42;;;;;;;12.13;2.03;;;;;;;14.79;48.55;101153.28;4978481;28;20038;-67
2023/05/16 09:58:08;;;;;;;8.10;1.63;;;;;;;14.52;48.58;101165.94;4977604;28;20034;-68
2023/05/16 10:00:33;;;;;;;8.23;1.95;;;;;;;14.70;49.15;101184.69;4978079;28;20038;-68
2023/05/16 10:03:01;;;;;;;7.53;2.17;;;;;;;14.49;48.11;101160.78;4981902;28;20725;-68
2023/05/16 10:05:27;;;;;;;3.88;1.20;;;;;;;14.11;49.07;101184.81;5008308;28;20042;-68
2023/05/16 10:07:56;;;;;;;7.97;2.00;;;;;;;14.18;49.56;101200.31;4980885;28;20038;-68
2023/05/16 10:10:23;;;;;;;8.60;2.00;;;;;;;14.44;48.75;101182.56;4978439;28;20053;-69
2023/05/16 10:12:50;;;;;;;5.72;1.80;;;;;;;14.41;48.65;101183.50;4981129;28;20535;-68
2023/05/16 10:15:17;;;;;;;7.68;1.98;;;;;;;14.45;47.99;101169.56;5002272;28;20038;-68
2023/05/16 10:17:44;;;;;;;4.90;1.95;;;;;;;14.39;48.87;101194.81;4980477;28;20035;-69
2023/05/16 10:20:11;;;;;;;5.18;1.90;;;;;;;14.17;49.69;101202.06;4978471;28;20092;-68
2023/05/16 10:22:42;;;;;;;3.40;1.60;;;;;;;13.97;50.10;101215.38;4983867;28;20934;-68
2023/05/16 10:25:16;;;;;;;7.28;2.35;;;;;;;14.18;48.64;101184.72;4972824;28;20057;-68
2023/05/16 10:27:43;;;;;;;7.85;2.22;;;;;;;14.88;46.73;101145.31;4982140;28;20038;-68
2023/05/16 10:30:09;;;;;;;6.70;1.80;;;;;;;15.03;45.85;101130.25;4981848;28;20038;-69
2023/05/16 10:32:36;;;;;;;6.90;2.38;;;;;;;14.74;47.17;101170.75;4979551;28;20045;-66
2023/05/16 10:35:03;;;;;;;7.53;1.80;;;;;;;14.60;47.92;101186.63;4980986;28;20065;-67
2023/05/16 10:37:30;;;;;;;6.78;1.75;;;;;;;14.50;49.62;101204.13;4977599;28;20030;-66
2023/05/16 10:39:59;;;;;;;7.18;1.70;;;;;;;14.70;48.69;101192.50;4981080;28;20042;-67
2023/05/16 10:42:25;;;;;;;6.43;1.92;;;;;;;15.07;48.05;101170.09;4976507;28;20039;-67
2023/05/16 10:44:56;;;;;;;6.68;1.63;;;;;;;15.43;44.96;101116.38;4991252;28;20038;-66
2023/05/16 10:47:21;;;;;;;9.60;1.83;;;;;;;15.62;44.95;101109.81;4983642;28;20026;-66
2023/05/16 10:49:47;;;;;;;5.82;2.00;;;;;;;15.86;46.09;101143.16;4981444;28;20045;-66
2023/05/16 10:52:14;;;;;;;7.13;1.38;;;;;;;15.68;44.01;101091.47;4986894;28;20046;-67
2023/05/16 10:54:50;;;;;;;6.53;1.85;;;;;;;15.84;44.34;101118.03;4978758;28;20046;-67
2023/05/16 10:57:19;;;;;;;7.40;1.67;;;;;;;16.01;45.15;101128.91;4976580;28;20031;-66
2023/05/16 10:59:46;;;;;;;6.30;1.80;;;;;;;15.47;42.43;101084.13;4981364;28;20057;-67
2023/05/16 11:02:32;;;;;;;5.93;1.30;;;;;;;15.67;43.91;101121.06;4980289;28;20026;-66
2023/05/16 11:05:00;;;;;;;4.97;1.90;;;;;;;15.08;44.60;101131.00;4980187;28;20039;-67
2023/05/16 11:07:32;;;;;;;5.47;1.73;;;;;;;15.25;47.36;101194.91;4979497;28;20056;-67
2023/05/16 11:10:09;;;;;;;3.40;1.25;;;;;;;15.42;45.56;101157.19;4971116;28;20042;-67
2023/05/16 11:12:44;;;;;;;8.10;1.58;;;;;;;15.33;45.21;101151.31;4980849;28;20035;-68
2023/05/16 11:15:31;;;;;;;2.83;1.40;;;;;;;15.48;45.42;101177.03;4980651;28;20146;-68